createdAt,value
2023-01-25T00:00:31.481Z,50.33
2023-01-25T00:02:58.556Z,80.43
2023-01-25T00:05:25.631Z,84.13
2023-01-25T00:07:52.552Z,77.47
2023-01-25T00:10:21.357Z,72.43
2023-01-25T00:12:48.252Z,61.73
2023-01-25T00:15:15.554Z,99.93
2023-01-25T00:17:42.272Z,69.43
2023-01-25T00:20:09.949Z,74.77
2023-01-25T00:22:36.739Z,45.77
2023-01-25T00:25:04.107Z,63.83
2023-01-25T00:27:30.871Z,54.50
2023-01-25T00:29:57.657Z,47.47
2023-01-25T00:32:34.529Z,85.90
2023-01-25T00:35:01.360Z,87.80
2023-01-25T00:37:37.909Z,50.73
2023-01-25T00:40:06.471Z,49.93
2023-01-25T00:42:33.308Z,49.77
2023-01-25T00:45:00.150Z,41.17
2023-01-25T00:47:27.103Z,77.07
2023-01-25T00:49:54.103Z,110.03
2023-01-25T00:52:22.485Z,83.87
2023-01-25T00:54:49.469Z,69.60
2023-01-25T00:57:16.365Z,62.40
2023-01-25T00:59:44.671Z,55.63
2023-01-25T01:02:12.473Z,66.93
2023-01-25T01:04:39.410Z,51.30
2023-01-25T01:07:07.485Z,52.30
2023-01-25T01:09:34.423Z,122.00
2023-01-25T01:12:01.902Z,75.23
2023-01-25T01:14:28.898Z,55.57
2023-01-25T01:16:57.224Z,60.03
2023-01-25T01:19:26.505Z,78.60
2023-01-25T01:21:53.259Z,64.03
2023-01-25T01:24:20.158Z,87.70
2023-01-25T01:26:47.077Z,48.77
2023-01-25T01:29:14.027Z,52.83
2023-01-25T01:31:40.888Z,76.33
2023-01-25T01:34:07.712Z,74.47
2023-01-25T01:36:34.550Z,110.90
2023-01-25T01:39:01.336Z,61.17
2023-01-25T01:41:28.698Z,65.03
2023-01-25T01:43:55.679Z,45.37
2023-01-25T01:46:27.685Z,47.17
2023-01-25T01:48:56.017Z,53.30
2023-01-25T01:52:03.243Z,60.43
2023-01-25T01:54:38.697Z,54.07
2023-01-25T01:57:14.446Z,49.47
2023-01-25T01:59:46.503Z,43.60
2023-01-25T02:02:14.454Z,49.90
2023-01-25T02:04:44.278Z,68.17
2023-01-25T02:07:22.892Z,48.77
2023-01-25T02:09:51.806Z,103.80
2023-01-25T02:12:20.893Z,55.67
2023-01-25T02:14:53.762Z,45.67
2023-01-25T02:17:27.994Z,68.03
2023-01-25T02:20:01.194Z,59.57
2023-01-25T02:22:38.661Z,50.17
2023-01-25T02:25:10.422Z,48.30
2023-01-25T02:27:45.741Z,50.67
2023-01-25T02:30:12.612Z,56.00
2023-01-25T02:32:39.379Z,67.53
2023-01-25T02:35:06.930Z,47.93
2023-01-25T02:37:34.230Z,45.17
2023-01-25T02:40:01.042Z,46.83
2023-01-25T02:42:31.967Z,53.53
2023-01-25T02:44:58.816Z,38.27
2023-01-25T02:47:25.566Z,45.17
2023-01-25T02:49:52.265Z,39.60
2023-01-25T02:52:18.993Z,38.97
2023-01-25T02:54:45.843Z,33.80
2023-01-25T02:57:12.643Z,41.10
2023-01-25T02:59:39.550Z,33.30
2023-01-25T03:02:08.119Z,39.97
2023-01-25T03:04:34.878Z,41.90
2023-01-25T03:07:01.648Z,40.57
2023-01-25T03:09:28.409Z,39.83
2023-01-25T03:11:55.194Z,44.97
2023-01-25T03:14:22.006Z,31.77
2023-01-25T03:16:48.780Z,37.03
2023-01-25T03:19:15.659Z,34.80
2023-01-25T03:21:42.428Z,41.00
2023-01-25T03:24:10.664Z,33.60
2023-01-25T03:26:57.399Z,32.27
2023-01-25T03:29:24.290Z,35.67
2023-01-25T03:31:51.327Z,35.07
2023-01-25T03:34:18.263Z,35.57
2023-01-25T03:36:45.064Z,28.77
2023-01-25T03:39:11.855Z,35.30
2023-01-25T03:41:38.590Z,37.67
2023-01-25T03:44:05.348Z,34.83
2023-01-25T03:46:32.139Z,32.77
2023-01-25T03:48:58.999Z,30.87
2023-01-25T03:51:25.760Z,26.57
2023-01-25T03:53:52.497Z,25.33
2023-01-25T03:56:20.461Z,21.97
2023-01-25T03:58:47.445Z,27.77
2023-01-25T04:01:14.597Z,32.07
2023-01-25T04:03:41.575Z,21.37
2023-01-25T04:06:08.395Z,22.87
2023-01-25T04:08:35.782Z,18.37
2023-01-25T04:11:05.963Z,29.03
2023-01-25T04:13:35.298Z,16.53
2023-01-25T04:16:02.957Z,22.67
2023-01-25T04:18:29.764Z,13.23
2023-01-25T04:20:57.476Z,15.97
2023-01-25T04:23:25.798Z,17.13
2023-01-25T04:25:56.563Z,24.53
2023-01-25T04:28:24.298Z,16.40
2023-01-25T04:30:51.877Z,23.03
2023-01-25T04:33:18.715Z,20.80
2023-01-25T04:35:46.027Z,21.17
2023-01-25T04:38:13.243Z,21.50
2023-01-25T04:40:40.191Z,18.50
2023-01-25T04:43:07.076Z,18.23
2023-01-25T04:45:35.794Z,17.13
2023-01-25T04:48:04.412Z,24.83
2023-01-25T04:50:31.798Z,20.43
2023-01-25T04:52:58.498Z,20.17
2023-01-25T04:55:25.240Z,16.87
2023-01-25T04:57:53.639Z,17.43
2023-01-25T05:00:20.922Z,23.27
2023-01-25T05:02:47.943Z,19.80
2023-01-25T05:05:15.182Z,19.50
2023-01-25T05:07:41.957Z,20.60
2023-01-25T05:10:09.751Z,17.27
2023-01-25T05:12:36.556Z,16.80
2023-01-25T05:15:03.855Z,17.20
2023-01-25T05:17:30.679Z,19.17
2023-01-25T05:19:57.513Z,15.77
2023-01-25T05:22:24.371Z,19.53
2023-01-25T05:24:51.275Z,18.20
2023-01-25T05:27:20.297Z,24.10
2023-01-25T05:29:47.688Z,17.07
2023-01-25T05:32:17.084Z,18.50
2023-01-25T05:34:44.559Z,17.97
2023-01-25T05:37:14.124Z,16.13
2023-01-25T05:39:41.184Z,16.47
2023-01-25T05:42:15.821Z,16.87
2023-01-25T05:44:44.388Z,18.40
2023-01-25T05:47:14.387Z,19.30
2023-01-25T05:49:41.238Z,20.13
2023-01-25T05:52:10.882Z,19.67
2023-01-25T05:54:37.632Z,18.27
2023-01-25T05:57:04.599Z,18.73
2023-01-25T05:59:31.346Z,17.27
2023-01-25T06:01:58.109Z,17.43
2023-01-25T06:04:25.453Z,16.93
2023-01-25T06:06:52.222Z,28.60
2023-01-25T06:09:21.551Z,19.60
2023-01-25T06:11:48.296Z,20.17
2023-01-25T06:14:15.283Z,19.13
2023-01-25T06:16:42.025Z,21.13
2023-01-25T06:19:09.089Z,19.40
2023-01-25T06:21:38.655Z,27.03
2023-01-25T06:24:05.864Z,19.03
2023-01-25T06:26:32.630Z,17.17
2023-01-25T06:28:59.442Z,18.60
2023-01-25T06:31:26.389Z,25.40
2023-01-25T06:33:53.421Z,20.67
2023-01-25T06:36:21.865Z,20.23
2023-01-25T06:38:52.559Z,26.03
2023-01-25T06:41:20.544Z,21.97
2023-01-25T06:43:49.948Z,26.57
2023-01-25T06:46:16.957Z,22.30
2023-01-25T06:48:44.347Z,19.47
2023-01-25T06:51:13.296Z,19.90
2023-01-25T06:53:42.905Z,21.60
2023-01-25T06:56:12.176Z,26.37
2023-01-25T06:58:40.075Z,20.97
2023-01-25T07:01:11.881Z,22.27
2023-01-25T07:03:39.215Z,20.00
2023-01-25T07:06:08.268Z,19.43
2023-01-25T07:08:36.686Z,20.10
2023-01-25T07:11:06.395Z,22.93
2023-01-25T07:13:34.251Z,22.43
2023-01-25T07:16:05.221Z,15.80
2023-01-25T07:18:33.273Z,17.40
2023-01-25T07:21:12.994Z,17.70
2023-01-25T07:23:40.133Z,19.80
2023-01-25T07:26:11.800Z,18.67
2023-01-25T07:28:38.612Z,21.33
2023-01-25T07:31:06.443Z,22.03
2023-01-25T07:33:34.112Z,18.00
2023-01-25T07:36:06.388Z,17.90
2023-01-25T07:38:33.993Z,16.20
2023-01-25T07:41:00.961Z,17.67
2023-01-25T07:43:28.316Z,17.90
2023-01-25T07:46:00.415Z,17.77
2023-01-25T07:48:27.529Z,16.73
2023-01-25T07:51:12.414Z,16.80
2023-01-25T07:53:40.847Z,18.07
2023-01-25T07:56:09.097Z,16.80
2023-01-25T07:58:35.939Z,17.17
2023-01-25T08:01:07.513Z,18.57
2023-01-25T08:03:34.564Z,17.57
2023-01-25T08:06:01.471Z,21.23
2023-01-25T08:08:28.396Z,16.73
2023-01-25T08:10:55.154Z,18.87
2023-01-25T08:13:22.039Z,19.27
2023-01-25T08:15:56.014Z,15.77
2023-01-25T08:18:23.464Z,16.37
2023-01-25T08:20:50.300Z,15.50
2023-01-25T08:23:17.909Z,17.17
2023-01-25T08:25:44.700Z,17.03
2023-01-25T08:28:11.501Z,16.93
2023-01-25T08:30:45.778Z,17.43
2023-01-25T08:33:18.894Z,18.10
2023-01-25T08:35:56.961Z,21.23
2023-01-25T08:38:24.080Z,19.40
2023-01-25T08:40:51.544Z,19.67
2023-01-25T08:43:18.432Z,18.60
2023-01-25T08:45:45.673Z,17.70
2023-01-25T08:48:15.623Z,20.57
2023-01-25T08:50:47.540Z,18.20
2023-01-25T08:53:14.347Z,20.43
2023-01-25T08:55:43.044Z,20.47
2023-01-25T08:58:18.887Z,19.57
2023-01-25T09:00:46.260Z,19.03
2023-01-25T09:03:14.133Z,20.80
2023-01-25T09:05:41.765Z,20.43
2023-01-25T09:08:10.132Z,19.07
2023-01-25T09:10:37.253Z,21.30
2023-01-25T09:13:06.362Z,19.87
2023-01-25T09:15:34.915Z,21.53
2023-01-25T09:18:01.900Z,21.33
2023-01-25T09:20:30.555Z,18.70
2023-01-25T09:23:00.151Z,21.00
2023-01-25T09:25:27.081Z,20.53
2023-01-25T09:27:53.830Z,21.57
2023-01-25T09:30:22.179Z,21.93
2023-01-25T09:32:53.492Z,23.80
2023-01-25T09:35:20.545Z,20.47
2023-01-25T09:37:53.007Z,21.03
2023-01-25T09:40:23.679Z,25.33
2023-01-25T09:43:25.296Z,20.33
2023-01-25T09:45:52.073Z,21.07
2023-01-25T09:48:31.055Z,19.57
2023-01-25T09:51:20.536Z,20.40
2023-01-25T09:53:52.759Z,19.37
2023-01-25T09:56:19.744Z,19.10
2023-01-25T09:58:51.491Z,23.17
2023-01-25T10:01:38.919Z,17.63
2023-01-25T10:04:18.357Z,20.67
2023-01-25T10:07:00.652Z,19.67
2023-01-25T10:09:59.357Z,17.83
2023-01-25T10:12:31.052Z,18.37
2023-01-25T10:14:57.921Z,16.67
2023-01-25T10:17:41.861Z,16.73
2023-01-25T10:20:39.020Z,17.57
2023-01-25T10:23:08.821Z,16.23
2023-01-25T10:25:43.573Z,17.50
2023-01-25T10:28:23.093Z,22.13
2023-01-25T10:31:02.185Z,21.33
2023-01-25T10:33:31.425Z,21.80
2023-01-25T10:36:02.715Z,20.17
2023-01-25T10:38:42.376Z,17.73
2023-01-25T10:41:43.041Z,16.83
2023-01-25T10:44:22.253Z,17.97
2023-01-25T10:46:54.442Z,19.13
2023-01-25T10:49:46.405Z,17.37
2023-01-25T10:52:19.551Z,19.97
2023-01-25T10:54:50.164Z,20.07
2023-01-25T10:57:23.118Z,20.17
2023-01-25T10:59:52.270Z,19.97
2023-01-25T11:02:38.109Z,17.67
2023-01-25T11:05:23.618Z,18.30
2023-01-25T11:07:50.421Z,16.80
2023-01-25T11:10:26.327Z,16.50
2023-01-25T11:13:21.479Z,14.80
2023-01-25T11:16:15.107Z,19.40
2023-01-25T11:18:54.679Z,18.23
2023-01-25T11:21:25.390Z,19.27
2023-01-25T11:24:09.359Z,20.83
2023-01-25T11:26:41.186Z,17.83
2023-01-25T11:29:18.956Z,18.13
2023-01-25T11:31:49.536Z,17.37
2023-01-25T11:34:19.514Z,17.40
2023-01-25T11:37:23.950Z,18.97
2023-01-25T11:39:55.935Z,19.60
2023-01-25T11:42:33.857Z,19.67
2023-01-25T11:45:03.607Z,20.63
2023-01-25T11:48:10.048Z,21.13
2023-01-25T11:50:58.928Z,23.47
2023-01-25T11:53:46.588Z,23.23
2023-01-25T11:56:57.683Z,29.90
2023-01-25T12:00:02.689Z,24.93
2023-01-25T12:02:55.786Z,21.27
2023-01-25T12:05:57.745Z,22.73
2023-01-25T12:08:52.281Z,23.13
2023-01-25T12:11:57.280Z,19.70
2023-01-25T12:14:42.601Z,24.40
2023-01-25T12:17:46.952Z,21.67
2023-01-25T12:20:54.066Z,23.53
2023-01-25T12:23:39.547Z,19.77
2023-01-25T12:26:21.179Z,27.60
2023-01-25T12:29:03.716Z,25.17
2023-01-25T12:31:43.295Z,28.07
2023-01-25T12:34:22.525Z,26.07
2023-01-25T12:36:51.259Z,25.77
2023-01-25T12:39:25.111Z,29.47
2023-01-25T12:41:57.402Z,22.73
2023-01-25T12:44:48.228Z,27.20
2023-01-25T12:47:20.868Z,25.77
2023-01-25T12:50:18.163Z,26.57
2023-01-25T12:53:17.909Z,26.80
2023-01-25T12:55:45.277Z,29.17
2023-01-25T12:58:45.148Z,24.87
2023-01-25T13:01:42.377Z,22.90
2023-01-25T13:04:28.179Z,24.93
2023-01-25T13:07:16.171Z,26.70
2023-01-25T13:09:59.879Z,25.00
2023-01-25T13:12:27.536Z,25.07
2023-01-25T13:14:54.591Z,25.57
2023-01-25T13:17:34.811Z,23.07
2023-01-25T13:20:23.775Z,23.67
2023-01-25T13:22:52.105Z,23.77
2023-01-25T13:25:26.428Z,24.47
2023-01-25T13:28:13.233Z,21.77
2023-01-25T13:30:52.091Z,20.33
2023-01-25T13:33:36.050Z,23.00
2023-01-25T13:36:40.220Z,20.80
2023-01-25T13:39:41.421Z,22.50
2023-01-25T13:42:11.345Z,22.37
2023-01-25T13:44:49.136Z,21.67
2023-01-25T13:47:48.007Z,20.20
2023-01-25T13:50:14.752Z,23.83
2023-01-25T13:52:56.327Z,24.67
2023-01-25T13:55:23.252Z,27.10
2023-01-25T13:57:51.581Z,27.03
2023-01-25T14:00:19.089Z,31.87
2023-01-25T14:02:49.191Z,28.13
2023-01-25T14:05:21.467Z,26.70
2023-01-25T14:07:51.435Z,22.60
2023-01-25T14:10:27.762Z,25.07
2023-01-25T14:13:00.059Z,27.80
2023-01-25T14:15:32.734Z,27.67
2023-01-25T14:18:16.516Z,27.67
2023-01-25T14:20:51.672Z,25.73
2023-01-25T14:23:26.066Z,26.27
2023-01-25T14:25:54.440Z,26.50
2023-01-25T14:28:22.394Z,26.20
2023-01-25T14:30:55.116Z,23.50
2023-01-25T14:33:31.703Z,24.60
2023-01-25T14:36:22.856Z,23.77
2023-01-25T14:38:51.169Z,24.60
2023-01-25T14:41:22.720Z,23.93
2023-01-25T14:43:52.833Z,23.93
2023-01-25T14:46:34.237Z,23.80
2023-01-25T14:49:13.428Z,25.20
2023-01-25T14:52:10.070Z,24.87
2023-01-25T14:54:47.897Z,23.77
2023-01-25T14:57:41.026Z,22.07
2023-01-25T15:00:21.311Z,21.67
2023-01-25T15:02:55.533Z,22.50
2023-01-25T15:05:27.557Z,22.17
2023-01-25T15:08:13.357Z,22.83
2023-01-25T15:10:55.126Z,21.93
2023-01-25T15:13:27.705Z,23.63
2023-01-25T15:15:54.752Z,22.47
2023-01-25T15:18:50.677Z,23.67
2023-01-25T15:21:20.558Z,22.43
2023-01-25T15:23:49.137Z,23.73
2023-01-25T15:26:21.926Z,24.80
2023-01-25T15:28:50.545Z,26.00
2023-01-25T15:31:24.365Z,24.63
2023-01-25T15:33:51.489Z,24.83
2023-01-25T15:36:18.696Z,25.73
2023-01-25T15:38:46.019Z,26.47
2023-01-25T15:41:14.028Z,23.70
2023-01-25T15:43:41.723Z,25.77
2023-01-25T15:46:24.953Z,23.73
2023-01-25T15:48:54.079Z,23.43
2023-01-25T15:51:21.621Z,21.47
2023-01-25T15:53:48.515Z,25.33
2023-01-25T15:56:18.455Z,25.40
2023-01-25T15:58:51.675Z,25.47
2023-01-25T16:01:19.515Z,25.77
2023-01-25T16:03:46.536Z,24.37
2023-01-25T16:06:32.161Z,25.03
2023-01-25T16:09:26.980Z,22.97
2023-01-25T16:11:57.135Z,22.60
2023-01-25T16:14:29.055Z,25.17
2023-01-25T16:17:00.247Z,23.70
2023-01-25T16:19:27.141Z,21.33
2023-01-25T16:21:54.018Z,22.47
2023-01-25T16:24:21.201Z,21.57
2023-01-25T16:26:56.768Z,23.53
2023-01-25T16:29:24.442Z,23.63
2023-01-25T16:31:52.239Z,24.07
2023-01-25T16:34:20.442Z,23.37
2023-01-25T16:36:50.529Z,21.77
2023-01-25T16:39:20.169Z,25.33
2023-01-25T16:41:48.154Z,25.20
2023-01-25T16:44:15.386Z,25.73
2023-01-25T16:46:42.839Z,24.17
2023-01-25T16:49:19.781Z,24.77
2023-01-25T16:51:49.225Z,23.60
2023-01-25T16:54:16.396Z,24.00
2023-01-25T16:56:43.316Z,23.13
2023-01-25T16:59:11.093Z,26.23
2023-01-25T17:01:40.795Z,24.97
2023-01-25T17:04:08.584Z,24.13
2023-01-25T17:06:37.825Z,22.73
2023-01-25T17:09:21.624Z,22.97
2023-01-25T17:11:49.910Z,24.53
2023-01-25T17:14:19.261Z,24.90
2023-01-25T17:16:48.273Z,26.20
2023-01-25T17:19:17.055Z,23.90
2023-01-25T17:21:44.731Z,22.63
2023-01-25T17:24:16.724Z,22.47
2023-01-25T17:26:43.645Z,24.83
2023-01-25T17:29:10.972Z,24.13
2023-01-25T17:31:38.260Z,26.93
2023-01-25T17:34:08.261Z,29.87
2023-01-25T17:36:35.116Z,28.57
2023-01-25T17:39:05.041Z,25.83
2023-01-25T17:41:32.300Z,23.47
2023-01-25T17:43:59.201Z,26.17
2023-01-25T17:46:29.910Z,29.70
2023-01-25T17:48:57.959Z,25.67
2023-01-25T17:51:26.127Z,31.27
2023-01-25T17:53:53.676Z,35.80
2023-01-25T17:56:21.067Z,35.53
2023-01-25T17:58:48.122Z,30.80
2023-01-25T18:01:18.152Z,29.77
2023-01-25T18:03:46.602Z,29.90
2023-01-25T18:06:16.965Z,27.63
2023-01-25T18:08:49.844Z,26.00
2023-01-25T18:11:20.298Z,25.80
2023-01-25T18:13:53.010Z,27.37
2023-01-25T18:16:22.299Z,32.87
2023-01-25T18:18:52.355Z,24.47
2023-01-25T18:21:26.279Z,28.23
2023-01-25T18:24:00.026Z,33.93
2023-01-25T18:26:35.382Z,28.27
2023-01-25T18:29:26.675Z,28.63
2023-01-25T18:31:53.528Z,28.07
2023-01-25T18:34:20.344Z,26.17
2023-01-25T18:36:48.553Z,25.00
2023-01-25T18:39:15.310Z,26.47
2023-01-25T18:41:43.899Z,27.73
2023-01-25T18:44:11.528Z,25.87
2023-01-25T18:46:42.943Z,26.03
2023-01-25T18:49:09.840Z,28.57
2023-01-25T18:51:48.658Z,27.80
2023-01-25T18:54:23.685Z,26.40
2023-01-25T18:56:50.444Z,30.57
2023-01-25T18:59:17.152Z,29.70
2023-01-25T19:01:44.034Z,33.70
2023-01-25T19:04:11.084Z,29.53
2023-01-25T19:06:37.887Z,27.20
2023-01-25T19:09:05.128Z,26.73
2023-01-25T19:11:31.923Z,27.30
2023-01-25T19:13:58.710Z,24.10
2023-01-25T19:16:25.586Z,27.73
2023-01-25T19:18:54.953Z,26.80
2023-01-25T19:21:27.203Z,26.10
2023-01-25T19:23:55.422Z,20.47
2023-01-25T19:26:24.665Z,22.47
2023-01-25T19:28:52.278Z,22.93
2023-01-25T19:31:27.735Z,27.73
2023-01-25T19:34:03.161Z,25.40
2023-01-25T19:36:33.433Z,25.57
2023-01-25T19:39:02.303Z,26.17
2023-01-25T19:41:30.711Z,22.70
2023-01-25T19:44:01.960Z,24.73
2023-01-25T19:46:34.441Z,22.07
2023-01-25T19:49:02.929Z,28.33
2023-01-25T19:51:32.379Z,25.93
2023-01-25T19:54:10.308Z,26.57
2023-01-25T19:56:52.529Z,28.10
2023-01-25T19:59:25.678Z,27.67
2023-01-25T20:01:53.065Z,22.73
2023-01-25T20:04:25.524Z,27.23
2023-01-25T20:06:55.313Z,19.73
2023-01-25T20:09:28.005Z,18.50
2023-01-25T20:11:56.569Z,15.27
2023-01-25T20:14:23.695Z,14.20
2023-01-25T20:16:52.746Z,13.10
2023-01-25T20:19:20.112Z,12.33
2023-01-25T20:21:47.011Z,10.23
2023-01-25T20:24:13.994Z,10.77
2023-01-25T20:26:42.954Z,8.47
2023-01-25T20:29:11.486Z,7.13
2023-01-25T20:31:47.470Z,8.53
2023-01-25T20:34:16.955Z,6.70
2023-01-25T20:36:44.374Z,7.00
2023-01-25T20:39:17.847Z,7.40
2023-01-25T20:41:45.498Z,6.07
2023-01-25T20:44:14.879Z,6.00
2023-01-25T20:46:43.426Z,5.60
2023-01-25T20:49:15.178Z,5.53
2023-01-25T20:51:45.064Z,4.83
2023-01-25T20:54:11.980Z,4.80
2023-01-25T20:56:39.224Z,5.50
2023-01-25T20:59:06.151Z,5.17
2023-01-25T21:01:36.722Z,4.80
2023-01-25T21:04:06.263Z,4.60
2023-01-25T21:06:35.058Z,4.13
2023-01-25T21:09:02.224Z,4.10
2023-01-25T21:11:29.183Z,3.80
2023-01-25T21:13:58.437Z,3.67
2023-01-25T21:16:25.485Z,4.43
2023-01-25T21:18:57.840Z,3.50
2023-01-25T21:21:27.911Z,3.87
2023-01-25T21:23:57.728Z,3.83
2023-01-25T21:26:27.625Z,4.50
2023-01-25T21:28:55.087Z,4.00
2023-01-25T21:31:29.534Z,3.50
2023-01-25T21:33:56.880Z,3.40
2023-01-25T21:36:24.484Z,3.53
2023-01-25T21:38:53.355Z,3.23
2023-01-25T21:41:29.813Z,3.37
2023-01-25T21:44:17.148Z,2.80
2023-01-25T21:47:15.477Z,3.70
2023-01-25T21:49:52.768Z,3.03
2023-01-25T21:52:19.638Z,4.60
2023-01-25T21:54:46.477Z,4.77
2023-01-25T21:57:13.565Z,4.10
2023-01-25T21:59:41.098Z,4.20
2023-01-25T22:02:12.450Z,2.83
2023-01-25T22:04:39.580Z,3.10
2023-01-25T22:07:08.651Z,2.93
2023-01-25T22:09:36.213Z,3.50
2023-01-25T22:12:03.205Z,3.60
2023-01-25T22:14:30.091Z,3.70
2023-01-25T22:16:56.847Z,4.30
2023-01-25T22:19:23.698Z,3.27
2023-01-25T22:21:50.894Z,4.07
2023-01-25T22:24:17.990Z,3.53
2023-01-25T22:27:01.676Z,3.40
2023-01-25T22:29:32.906Z,3.70
2023-01-25T22:31:59.750Z,3.47
2023-01-25T22:34:26.785Z,2.70
2023-01-25T22:36:53.804Z,3.00
2023-01-25T22:39:20.928Z,3.47
2023-01-25T22:41:47.832Z,3.27
2023-01-25T22:44:15.115Z,4.00
2023-01-25T22:46:42.227Z,3.10
2023-01-25T22:49:09.417Z,3.17
2023-01-25T22:51:36.464Z,3.23
2023-01-25T22:54:03.329Z,3.10
2023-01-25T22:56:32.545Z,3.37
2023-01-25T22:59:00.403Z,3.70
2023-01-25T23:01:32.723Z,3.47
2023-01-25T23:04:02.035Z,2.70
2023-01-25T23:06:31.257Z,2.37
2023-01-25T23:09:00.059Z,3.17
2023-01-25T23:11:32.352Z,2.60
2023-01-25T23:14:18.359Z,2.70
2023-01-25T23:16:45.144Z,2.90
2023-01-25T23:19:12.268Z,3.27
2023-01-25T23:21:39.279Z,2.63
2023-01-25T23:24:09.328Z,2.90
2023-01-25T23:26:39.444Z,3.40
2023-01-25T23:29:09.455Z,2.73
2023-01-25T23:31:36.653Z,3.43
2023-01-25T23:34:05.789Z,2.60
2023-01-25T23:36:34.921Z,3.00
2023-01-25T23:39:02.608Z,3.00
2023-01-25T23:41:30.280Z,3.57
2023-01-25T23:43:58.141Z,3.07
2023-01-25T23:46:25.852Z,4.20
2023-01-25T23:48:53.548Z,3.87
2023-01-25T23:51:20.724Z,3.07
2023-01-25T23:53:48.137Z,2.80
2023-01-25T23:56:17.762Z,3.20
2023-01-25T23:58:45.638Z,3.03
